sensor_id;sensor_type;location;lat;lon;timestamp;temperature;humidity
10572;DHT22;5334;48.928;12.704;2023-04-22T00:01:42;11.40;99.90
10572;DHT22;5334;48.928;12.704;2023-04-22T00:04:08;11.50;99.90
10572;DHT22;5334;48.928;12.704;2023-04-22T00:06:34;11.60;99.90
10572;DHT22;5334;48.928;12.704;2023-04-22T00:09:00;11.60;99.90
10572;DHT22;5334;48.928;12.704;2023-04-22T00:11:25;11.50;99.90
10572;DHT22;5334;48.928;12.704;2023-04-22T00:13:51;11.40;99.90
10572;DHT22;5334;48.928;12.704;2023-04-22T00:16:17;11.30;99.90
10572;DHT22;5334;48.928;12.704;2023-04-22T00:18:42;11.10;99.90
10572;DHT22;5334;48.928;12.704;2023-04-22T00:21:08;11.00;99.90
10572;DHT22;5334;48.928;12.704;2023-04-22T00:23:34;10.90;99.90
10572;DHT22;5334;48.928;12.704;2023-04-22T00:26:00;10.70;99.90
10572;DHT22;5334;48.928;12.704;2023-04-22T00:28:26;10.60;99.90
10572;DHT22;5334;48.928;12.704;2023-04-22T00:30:52;10.60;99.90
10572;DHT22;5334;48.928;12.704;2023-04-22T00:33:17;10.60;99.90
10572;DHT22;5334;48.928;12.704;2023-04-22T00:35:45;10.50;99.90
10572;DHT22;5334;48.928;12.704;2023-04-22T00:38:11;10.50;99.90
10572;DHT22;5334;48.928;12.704;2023-04-22T00:40:37;10.50;99.90
10572;DHT22;5334;48.928;12.704;2023-04-22T00:43:02;10.50;99.90
10572;DHT22;5334;48.928;12.704;2023-04-22T00:45:29;10.50;99.90
10572;DHT22;5334;48.928;12.704;2023-04-22T00:47:55;10.40;99.90
10572;DHT22;5334;48.928;12.704;2023-04-22T00:50:21;10.40;99.90
10572;DHT22;5334;48.928;12.704;2023-04-22T00:52:47;10.30;99.90
10572;DHT22;5334;48.928;12.704;2023-04-22T00:55:12;10.30;99.90
10572;DHT22;5334;48.928;12.704;2023-04-22T00:57:39;10.30;99.90
10572;DHT22;5334;48.928;12.704;2023-04-22T01:00:05;10.20;99.90
10572;DHT22;5334;48.928;12.704;2023-04-22T01:02:31;10.20;99.90
10572;DHT22;5334;48.928;12.704;2023-04-22T01:04:57;10.20;99.90
10572;DHT22;5334;48.928;12.704;2023-04-22T01:07:23;10.20;99.90
10572;DHT22;5334;48.928;12.704;2023-04-22T01:09:49;10.20;99.90
10572;DHT22;5334;48.928;12.704;2023-04-22T01:12:15;10.30;99.90
10572;DHT22;5334;48.928;12.704;2023-04-22T01:14:41;10.30;99.90
10572;DHT22;5334;48.928;12.704;2023-04-22T01:17:07;10.30;99.90
10572;DHT22;5334;48.928;12.704;2023-04-22T01:19:35;10.30;99.90
10572;DHT22;5334;48.928;12.704;2023-04-22T01:22:00;10.30;99.90
10572;DHT22;5334;48.928;12.704;2023-04-22T01:24:27;10.30;99.90
10572;DHT22;5334;48.928;12.704;2023-04-22T01:26:53;10.30;99.90
10572;DHT22;5334;48.928;12.704;2023-04-22T01:29:19;10.20;99.90
10572;DHT22;5334;48.928;12.704;2023-04-22T01:31:45;9.90;99.90
10572;DHT22;5334;48.928;12.704;2023-04-22T01:34:11;9.70;99.90
10572;DHT22;5334;48.928;12.704;2023-04-22T01:36:37;9.50;99.90
10572;DHT22;5334;48.928;12.704;2023-04-22T01:39:03;9.30;99.90
10572;DHT22;5334;48.928;12.704;2023-04-22T01:41:29;9.20;99.90
10572;DHT22;5334;48.928;12.704;2023-04-22T01:43:57;9.20;99.90
10572;DHT22;5334;48.928;12.704;2023-04-22T01:46:22;9.20;99.90
10572;DHT22;5334;48.928;12.704;2023-04-22T01:48:48;9.20;99.90
10572;DHT22;5334;48.928;12.704;2023-04-22T01:51:17;9.20;99.90
10572;DHT22;5334;48.928;12.704;2023-04-22T01:53:45;9.20;99.90
10572;DHT22;5334;48.928;12.704;2023-04-22T01:56:11;9.20;99.90
10572;DHT22;5334;48.928;12.704;2023-04-22T01:58:38;9.20;99.90
10572;DHT22;5334;48.928;12.704;2023-04-22T02:01:04;9.30;99.90
10572;DHT22;5334;48.928;12.704;2023-04-22T02:03:31;9.30;99.90
10572;DHT22;5334;48.928;12.704;2023-04-22T02:05:56;9.40;99.90
10572;DHT22;5334;48.928;12.704;2023-04-22T02:08:22;9.50;99.90
10572;DHT22;5334;48.928;12.704;2023-04-22T02:10:48;9.40;99.90
10572;DHT22;5334;48.928;12.704;2023-04-22T02:13:13;9.30;99.90
10572;DHT22;5334;48.928;12.704;2023-04-22T02:15:39;9.40;99.90
10572;DHT22;5334;48.928;12.704;2023-04-22T02:18:06;9.40;99.90
10572;DHT22;5334;48.928;12.704;2023-04-22T02:20:32;9.40;99.90
10572;DHT22;5334;48.928;12.704;2023-04-22T02:22:58;9.40;99.90
10572;DHT22;5334;48.928;12.704;2023-04-22T02:25:24;9.40;99.90
10572;DHT22;5334;48.928;12.704;2023-04-22T02:27:51;9.40;99.90
10572;DHT22;5334;48.928;12.704;2023-04-22T02:30:16;9.30;99.90
10572;DHT22;5334;48.928;12.704;2023-04-22T02:32:42;9.30;99.90
10572;DHT22;5334;48.928;12.704;2023-04-22T02:35:09;9.30;99.90
10572;DHT22;5334;48.928;12.704;2023-04-22T02:37:36;9.30;99.90
10572;DHT22;5334;48.928;12.704;2023-04-22T02:40:01;9.30;99.90
10572;DHT22;5334;48.928;12.704;2023-04-22T02:42:28;9.30;99.90
10572;DHT22;5334;48.928;12.704;2023-04-22T02:44:53;9.30;99.90
10572;DHT22;5334;48.928;12.704;2023-04-22T02:47:21;9.20;99.90
10572;DHT22;5334;48.928;12.704;2023-04-22T02:49:46;9.10;99.90
10572;DHT22;5334;48.928;12.704;2023-04-22T02:54:38;8.90;99.90
10572;DHT22;5334;48.928;12.704;2023-04-22T02:57:04;8.80;99.90
10572;DHT22;5334;48.928;12.704;2023-04-22T02:59:30;8.80;99.90
10572;DHT22;5334;48.928;12.704;2023-04-22T03:01:56;8.80;99.90
10572;DHT22;5334;48.928;12.704;2023-04-22T03:04:22;8.80;99.90
10572;DHT22;5334;48.928;12.704;2023-04-22T03:06:50;8.70;99.90
10572;DHT22;5334;48.928;12.704;2023-04-22T03:09:15;8.80;99.90
10572;DHT22;5334;48.928;12.704;2023-04-22T03:11:42;8.80;99.90
10572;DHT22;5334;48.928;12.704;2023-04-22T03:14:07;8.80;99.90
10572;DHT22;5334;48.928;12.704;2023-04-22T03:16:33;8.80;99.90
10572;DHT22;5334;48.928;12.704;2023-04-22T03:18:59;8.80;99.90
10572;DHT22;5334;48.928;12.704;2023-04-22T03:21:24;8.80;99.90
10572;DHT22;5334;48.928;12.704;2023-04-22T03:23:50;8.80;99.90
10572;DHT22;5334;48.928;12.704;2023-04-22T03:26:16;8.80;99.90
10572;DHT22;5334;48.928;12.704;2023-04-22T03:28:42;8.80;99.90
10572;DHT22;5334;48.928;12.704;2023-04-22T03:31:07;8.70;99.90
10572;DHT22;5334;48.928;12.704;2023-04-22T03:33:33;8.70;99.90
10572;DHT22;5334;48.928;12.704;2023-04-22T03:35:59;8.60;99.90
10572;DHT22;5334;48.928;12.704;2023-04-22T03:38:24;8.60;99.90
10572;DHT22;5334;48.928;12.704;2023-04-22T03:40:50;8.60;99.90
10572;DHT22;5334;48.928;12.704;2023-04-22T03:43:16;8.60;99.90
10572;DHT22;5334;48.928;12.704;2023-04-22T03:45:41;8.70;99.90
10572;DHT22;5334;48.928;12.704;2023-04-22T03:48:07;8.70;99.90
10572;DHT22;5334;48.928;12.704;2023-04-22T03:50:32;8.70;99.90
10572;DHT22;5334;48.928;12.704;2023-04-22T03:52:58;8.80;99.90
10572;DHT22;5334;48.928;12.704;2023-04-22T03:55:24;8.80;99.90
10572;DHT22;5334;48.928;12.704;2023-04-22T03:57:49;8.80;99.90
10572;DHT22;5334;48.928;12.704;2023-04-22T04:00:15;8.80;99.90
10572;DHT22;5334;48.928;12.704;2023-04-22T04:02:41;8.70;99.90
10572;DHT22;5334;48.928;12.704;2023-04-22T04:05:07;8.60;99.90
10572;DHT22;5334;48.928;12.704;2023-04-22T04:07:35;8.60;99.90
10572;DHT22;5334;48.928;12.704;2023-04-22T04:10:01;8.60;99.90
10572;DHT22;5334;48.928;12.704;2023-04-22T04:12:27;8.70;99.90
10572;DHT22;5334;48.928;12.704;2023-04-22T04:14:52;8.70;99.90
10572;DHT22;5334;48.928;12.704;2023-04-22T04:17:18;8.60;99.90
10572;DHT22;5334;48.928;12.704;2023-04-22T04:19:44;8.60;99.90
10572;DHT22;5334;48.928;12.704;2023-04-22T04:22:10;8.60;99.90
10572;DHT22;5334;48.928;12.704;2023-04-22T04:24:36;8.70;99.90
10572;DHT22;5334;48.928;12.704;2023-04-22T04:27:06;8.70;99.90
10572;DHT22;5334;48.928;12.704;2023-04-22T04:29:33;8.70;99.90
10572;DHT22;5334;48.928;12.704;2023-04-22T04:32:00;8.80;99.90
10572;DHT22;5334;48.928;12.704;2023-04-22T04:34:25;8.80;99.90
10572;DHT22;5334;48.928;12.704;2023-04-22T04:36:51;8.80;99.90
10572;DHT22;5334;48.928;12.704;2023-04-22T04:39:17;8.90;99.90
10572;DHT22;5334;48.928;12.704;2023-04-22T04:41:43;8.90;99.90
10572;DHT22;5334;48.928;12.704;2023-04-22T04:44:09;8.90;99.90
10572;DHT22;5334;48.928;12.704;2023-04-22T04:46:35;8.90;99.90
10572;DHT22;5334;48.928;12.704;2023-04-22T04:49:02;8.90;99.90
10572;DHT22;5334;48.928;12.704;2023-04-22T04:51:29;8.90;99.90
10572;DHT22;5334;48.928;12.704;2023-04-22T04:53:57;8.90;99.90
10572;DHT22;5334;48.928;12.704;2023-04-22T04:56:22;8.90;99.90
10572;DHT22;5334;48.928;12.704;2023-04-22T04:58:48;9.00;99.90
10572;DHT22;5334;48.928;12.704;2023-04-22T05:01:14;9.10;99.90
10572;DHT22;5334;48.928;12.704;2023-04-22T05:03:39;9.20;99.90
10572;DHT22;5334;48.928;12.704;2023-04-22T05:06:05;9.40;99.90
10572;DHT22;5334;48.928;12.704;2023-04-22T05:08:31;9.50;99.90
10572;DHT22;5334;48.928;12.704;2023-04-22T05:10:57;9.70;99.90
10572;DHT22;5334;48.928;12.704;2023-04-22T05:13:23;9.90;99.90
10572;DHT22;5334;48.928;12.704;2023-04-22T05:15:48;10.10;99.90
10572;DHT22;5334;48.928;12.704;2023-04-22T05:18:14;10.20;99.90
10572;DHT22;5334;48.928;12.704;2023-04-22T05:20:40;10.30;99.90
10572;DHT22;5334;48.928;12.704;2023-04-22T05:23:05;10.40;99.90
10572;DHT22;5334;48.928;12.704;2023-04-22T05:25:31;10.50;99.90
10572;DHT22;5334;48.928;12.704;2023-04-22T05:27:57;10.60;99.90
10572;DHT22;5334;48.928;12.704;2023-04-22T05:30:22;10.70;99.90
10572;DHT22;5334;48.928;12.704;2023-04-22T05:32:48;10.70;99.90
10572;DHT22;5334;48.928;12.704;2023-04-22T05:35:14;10.80;99.90
10572;DHT22;5334;48.928;12.704;2023-04-22T05:37:39;11.00;99.90
10572;DHT22;5334;48.928;12.704;2023-04-22T05:40:06;11.20;99.90
10572;DHT22;5334;48.928;12.704;2023-04-22T05:42:31;11.50;99.90
10572;DHT22;5334;48.928;12.704;2023-04-22T05:44:57;11.80;99.90
10572;DHT22;5334;48.928;12.704;2023-04-22T05:47:22;12.20;99.90
10572;DHT22;5334;48.928;12.704;2023-04-22T05:49:48;12.50;99.90
10572;DHT22;5334;48.928;12.704;2023-04-22T05:52:14;12.60;99.90
10572;DHT22;5334;48.928;12.704;2023-04-22T05:54:40;12.60;99.90
10572;DHT22;5334;48.928;12.704;2023-04-22T05:57:05;12.60;99.90
10572;DHT22;5334;48.928;12.704;2023-04-22T05:59:31;12.70;99.90
10572;DHT22;5334;48.928;12.704;2023-04-22T06:01:57;12.70;99.90
10572;DHT22;5334;48.928;12.704;2023-04-22T06:04:22;12.80;99.90
10572;DHT22;5334;48.928;12.704;2023-04-22T06:06:48;13.00;99.90
10572;DHT22;5334;48.928;12.704;2023-04-22T06:09:18;13.30;99.90
10572;DHT22;5334;48.928;12.704;2023-04-22T06:11:43;13.50;99.90
10572;DHT22;5334;48.928;12.704;2023-04-22T06:14:09;13.50;99.90
10572;DHT22;5334;48.928;12.704;2023-04-22T06:16:35;13.40;99.90
10572;DHT22;5334;48.928;12.704;2023-04-22T06:19:00;13.40;99.90
10572;DHT22;5334;48.928;12.704;2023-04-22T06:21:26;13.40;99.90
10572;DHT22;5334;48.928;12.704;2023-04-22T06:23:52;13.60;99.90
10572;DHT22;5334;48.928;12.704;2023-04-22T06:26:18;13.80;99.90
10572;DHT22;5334;48.928;12.704;2023-04-22T06:28:44;14.10;99.90
10572;DHT22;5334;48.928;12.704;2023-04-22T06:31:09;14.30;99.90
10572;DHT22;5334;48.928;12.704;2023-04-22T06:33:35;14.50;99.90
10572;DHT22;5334;48.928;12.704;2023-04-22T06:36:01;14.70;99.90
10572;DHT22;5334;48.928;12.704;2023-04-22T06:38:27;14.80;99.90
10572;DHT22;5334;48.928;12.704;2023-04-22T06:40:52;14.80;99.90
10572;DHT22;5334;48.928;12.704;2023-04-22T06:43:18;14.80;99.90
10572;DHT22;5334;48.928;12.704;2023-04-22T06:45:43;14.90;99.90
10572;DHT22;5334;48.928;12.704;2023-04-22T06:48:09;15.00;99.90
10572;DHT22;5334;48.928;12.704;2023-04-22T06:50:35;15.30;99.90
10572;DHT22;5334;48.928;12.704;2023-04-22T06:53:00;15.60;99.90
10572;DHT22;5334;48.928;12.704;2023-04-22T06:55:26;15.80;99.90
10572;DHT22;5334;48.928;12.704;2023-04-22T06:57:52;16.10;99.90
10572;DHT22;5334;48.928;12.704;2023-04-22T07:00:17;16.30;99.90
10572;DHT22;5334;48.928;12.704;2023-04-22T07:02:43;16.50;99.90
10572;DHT22;5334;48.928;12.704;2023-04-22T07:05:09;16.60;99.90
10572;DHT22;5334;48.928;12.704;2023-04-22T07:07:35;16.50;99.90
10572;DHT22;5334;48.928;12.704;2023-04-22T07:10:00;16.40;99.90
10572;DHT22;5334;48.928;12.704;2023-04-22T07:12:26;16.40;99.90
10572;DHT22;5334;48.928;12.704;2023-04-22T07:14:52;16.40;99.90
10572;DHT22;5334;48.928;12.704;2023-04-22T07:17:18;16.40;99.90
10572;DHT22;5334;48.928;12.704;2023-04-22T07:19:47;16.40;99.90
10572;DHT22;5334;48.928;12.704;2023-04-22T07:22:12;16.30;99.90
10572;DHT22;5334;48.928;12.704;2023-04-22T07:24:38;16.00;99.90
10572;DHT22;5334;48.928;12.704;2023-04-22T07:27:05;15.80;99.90
10572;DHT22;5334;48.928;12.704;2023-04-22T07:29:31;15.80;99.90
10572;DHT22;5334;48.928;12.704;2023-04-22T07:31:56;15.90;99.90
10572;DHT22;5334;48.928;12.704;2023-04-22T07:34:22;16.10;99.90
10572;DHT22;5334;48.928;12.704;2023-04-22T07:36:49;16.50;99.90
10572;DHT22;5334;48.928;12.704;2023-04-22T07:39:16;16.50;99.90
10572;DHT22;5334;48.928;12.704;2023-04-22T07:41:42;16.70;99.90
10572;DHT22;5334;48.928;12.704;2023-04-22T07:44:08;16.80;99.90
10572;DHT22;5334;48.928;12.704;2023-04-22T07:46:35;16.90;99.90
10572;DHT22;5334;48.928;12.704;2023-04-22T07:49:00;17.20;99.90
10572;DHT22;5334;48.928;12.704;2023-04-22T07:51:26;17.40;99.90
10572;DHT22;5334;48.928;12.704;2023-04-22T07:53:52;17.60;99.90
10572;DHT22;5334;48.928;12.704;2023-04-22T07:56:17;17.90;99.90
10572;DHT22;5334;48.928;12.704;2023-04-22T07:58:43;18.10;99.90
10572;DHT22;5334;48.928;12.704;2023-04-22T08:01:09;17.80;98.60
10572;DHT22;5334;48.928;12.704;2023-04-22T08:03:34;17.40;99.50
10572;DHT22;5334;48.928;12.704;2023-04-22T08:06:00;17.00;99.80
10572;DHT22;5334;48.928;12.704;2023-04-22T08:08:25;17.10;99.90
10572;DHT22;5334;48.928;12.704;2023-04-22T08:10:51;17.30;99.90
10572;DHT22;5334;48.928;12.704;2023-04-22T08:13:17;17.50;99.50
10572;DHT22;5334;48.928;12.704;2023-04-22T08:15:42;17.60;98.70
10572;DHT22;5334;48.928;12.704;2023-04-22T08:18:08;17.70;97.90
10572;DHT22;5334;48.928;12.704;2023-04-22T08:20:34;17.80;98.60
10572;DHT22;5334;48.928;12.704;2023-04-22T08:22:59;17.90;98.20
10572;DHT22;5334;48.928;12.704;2023-04-22T08:25:26;18.00;97.90
10572;DHT22;5334;48.928;12.704;2023-04-22T08:27:52;18.10;98.00
10572;DHT22;5334;48.928;12.704;2023-04-22T08:30:18;18.40;98.20
10572;DHT22;5334;48.928;12.704;2023-04-22T08:32:44;18.50;97.50
10572;DHT22;5334;48.928;12.704;2023-04-22T08:35:10;18.70;97.30
10572;DHT22;5334;48.928;12.704;2023-04-22T08:37:36;18.50;96.90
10572;DHT22;5334;48.928;12.704;2023-04-22T08:40:02;18.40;96.60
10572;DHT22;5334;48.928;12.704;2023-04-22T08:42:28;18.60;97.00
10572;DHT22;5334;48.928;12.704;2023-04-22T08:44:55;18.80;96.10
10572;DHT22;5334;48.928;12.704;2023-04-22T08:47:21;18.60;95.50
10572;DHT22;5334;48.928;12.704;2023-04-22T08:49:46;18.50;96.50
10572;DHT22;5334;48.928;12.704;2023-04-22T08:52:13;18.50;96.50
10572;DHT22;5334;48.928;12.704;2023-04-22T08:54:40;18.60;97.20
10572;DHT22;5334;48.928;12.704;2023-04-22T08:57:07;18.70;96.30
10572;DHT22;5334;48.928;12.704;2023-04-22T08:59:36;18.90;96.20
10572;DHT22;5334;48.928;12.704;2023-04-22T09:02:04;18.70;95.90
10572;DHT22;5334;48.928;12.704;2023-04-22T09:04:30;18.70;96.10
10572;DHT22;5334;48.928;12.704;2023-04-22T09:09:22;19.30;96.00
10572;DHT22;5334;48.928;12.704;2023-04-22T09:11:49;19.50;95.00
10572;DHT22;5334;48.928;12.704;2023-04-22T09:14:15;19.40;95.10
10572;DHT22;5334;48.928;12.704;2023-04-22T09:16:48;19.80;95.50
10572;DHT22;5334;48.928;12.704;2023-04-22T09:19:23;19.70;95.60
10572;DHT22;5334;48.928;12.704;2023-04-22T09:21:49;19.70;94.60
10572;DHT22;5334;48.928;12.704;2023-04-22T09:24:15;19.70;94.20
10572;DHT22;5334;48.928;12.704;2023-04-22T09:26:41;19.70;94.90
10572;DHT22;5334;48.928;12.704;2023-04-22T09:29:12;19.90;95.60
10572;DHT22;5334;48.928;12.704;2023-04-22T09:34:10;20.40;93.10
10572;DHT22;5334;48.928;12.704;2023-04-22T09:36:35;20.20;93.20
10572;DHT22;5334;48.928;12.704;2023-04-22T09:39:06;20.00;93.30
10572;DHT22;5334;48.928;12.704;2023-04-22T09:41:39;19.50;93.70
10572;DHT22;5334;48.928;12.704;2023-04-22T09:44:15;19.30;93.80
10572;DHT22;5334;48.928;12.704;2023-04-22T09:46:45;19.50;93.80
10572;DHT22;5334;48.928;12.704;2023-04-22T09:49:15;19.70;93.60
10572;DHT22;5334;48.928;12.704;2023-04-22T09:51:43;19.70;93.40
10572;DHT22;5334;48.928;12.704;2023-04-22T09:54:11;19.80;94.20
10572;DHT22;5334;48.928;12.704;2023-04-22T09:56:51;19.80;93.90
10572;DHT22;5334;48.928;12.704;2023-04-22T09:59:20;19.50;93.70
10572;DHT22;5334;48.928;12.704;2023-04-22T10:01:51;19.40;94.70
10572;DHT22;5334;48.928;12.704;2023-04-22T10:04:17;19.40;94.80
10572;DHT22;5334;48.928;12.704;2023-04-22T10:06:46;19.40;94.80
10572;DHT22;5334;48.928;12.704;2023-04-22T10:09:12;19.80;94.60
10572;DHT22;5334;48.928;12.704;2023-04-22T10:11:39;20.00;94.70
10572;DHT22;5334;48.928;12.704;2023-04-22T10:14:06;19.90;93.90
10572;DHT22;5334;48.928;12.704;2023-04-22T10:19:03;20.40;93.50
10572;DHT22;5334;48.928;12.704;2023-04-22T10:24:00;20.50;93.00
10572;DHT22;5334;48.928;12.704;2023-04-22T10:34:29;22.10;90.60
10572;DHT22;5334;48.928;12.704;2023-04-22T10:39:29;22.10;91.10
10572;DHT22;5334;48.928;12.704;2023-04-22T10:44:28;21.60;91.20
10572;DHT22;5334;48.928;12.704;2023-04-22T10:46:58;21.20;92.00
10572;DHT22;5334;48.928;12.704;2023-04-22T10:49:26;21.30;92.40
10572;DHT22;5334;48.928;12.704;2023-04-22T10:51:55;21.40;93.70
10572;DHT22;5334;48.928;12.704;2023-04-22T10:59:44;22.00;91.90
10572;DHT22;5334;48.928;12.704;2023-04-22T11:02:12;22.10;90.90
10572;DHT22;5334;48.928;12.704;2023-04-22T11:04:38;22.30;90.10
10572;DHT22;5334;48.928;12.704;2023-04-22T18:33:48;17.90;71.80
10572;DHT22;5334;48.928;12.704;2023-04-22T18:36:17;17.90;73.20
10572;DHT22;5334;48.928;12.704;2023-04-22T18:38:58;17.70;74.70
10572;DHT22;5334;48.928;12.704;2023-04-22T18:41:24;17.60;76.40
10572;DHT22;5334;48.928;12.704;2023-04-22T18:43:50;17.40;77.50
10572;DHT22;5334;48.928;12.704;2023-04-22T18:46:16;17.30;78.50
10572;DHT22;5334;48.928;12.704;2023-04-22T18:48:45;17.20;79.60
10572;DHT22;5334;48.928;12.704;2023-04-22T18:51:10;17.10;80.70
10572;DHT22;5334;48.928;12.704;2023-04-22T18:53:45;16.90;81.90
10572;DHT22;5334;48.928;12.704;2023-04-22T18:56:13;16.80;83.10
10572;DHT22;5334;48.928;12.704;2023-04-22T18:58:39;16.70;83.50
10572;DHT22;5334;48.928;12.704;2023-04-22T19:01:09;16.60;83.30
10572;DHT22;5334;48.928;12.704;2023-04-22T19:03:43;16.60;83.70
10572;DHT22;5334;48.928;12.704;2023-04-22T19:06:08;16.50;83.80
10572;DHT22;5334;48.928;12.704;2023-04-22T19:08:34;16.50;83.60
10572;DHT22;5334;48.928;12.704;2023-04-22T19:11:00;16.50;83.60
10572;DHT22;5334;48.928;12.704;2023-04-22T19:13:25;16.50;84.60
10572;DHT22;5334;48.928;12.704;2023-04-22T19:15:51;16.50;84.60
10572;DHT22;5334;48.928;12.704;2023-04-22T19:18:17;16.40;84.60
10572;DHT22;5334;48.928;12.704;2023-04-22T19:20:42;16.40;85.30
10572;DHT22;5334;48.928;12.704;2023-04-22T19:23:11;16.30;85.70
10572;DHT22;5334;48.928;12.704;2023-04-22T19:25:36;16.20;85.90
10572;DHT22;5334;48.928;12.704;2023-04-22T19:28:03;16.10;87.00
10572;DHT22;5334;48.928;12.704;2023-04-22T19:30:28;15.90;88.40
10572;DHT22;5334;48.928;12.704;2023-04-22T19:32:54;15.80;88.60
10572;DHT22;5334;48.928;12.704;2023-04-22T19:35:20;15.70;89.80
10572;DHT22;5334;48.928;12.704;2023-04-22T19:37:46;15.60;90.20
10572;DHT22;5334;48.928;12.704;2023-04-22T19:40:12;15.50;90.30
10572;DHT22;5334;48.928;12.704;2023-04-22T19:42:41;15.50;90.60
10572;DHT22;5334;48.928;12.704;2023-04-22T19:45:07;15.40;91.10
10572;DHT22;5334;48.928;12.704;2023-04-22T19:47:34;15.40;91.10
10572;DHT22;5334;48.928;12.704;2023-04-22T19:50:04;15.30;91.60
10572;DHT22;5334;48.928;12.704;2023-04-22T19:52:32;15.20;91.90
10572;DHT22;5334;48.928;12.704;2023-04-22T19:55:03;15.20;91.90
10572;DHT22;5334;48.928;12.704;2023-04-22T19:57:34;15.10;92.40
10572;DHT22;5334;48.928;12.704;2023-04-22T20:00:01;15.10;92.50
10572;DHT22;5334;48.928;12.704;2023-04-22T20:02:27;15.00;92.80
10572;DHT22;5334;48.928;12.704;2023-04-22T20:04:53;15.00;92.90
10572;DHT22;5334;48.928;12.704;2023-04-22T20:07:19;14.90;92.60
10572;DHT22;5334;48.928;12.704;2023-04-22T20:09:45;14.90;92.70
10572;DHT22;5334;48.928;12.704;2023-04-22T20:12:12;14.90;92.90
10572;DHT22;5334;48.928;12.704;2023-04-22T20:14:38;14.80;92.80
10572;DHT22;5334;48.928;12.704;2023-04-22T20:17:03;14.80;93.60
10572;DHT22;5334;48.928;12.704;2023-04-22T20:19:30;14.70;93.70
10572;DHT22;5334;48.928;12.704;2023-04-22T20:21:56;14.70;94.30
10572;DHT22;5334;48.928;12.704;2023-04-22T20:24:24;14.60;94.20
10572;DHT22;5334;48.928;12.704;2023-04-22T20:26:50;14.50;94.10
10572;DHT22;5334;48.928;12.704;2023-04-22T20:29:17;14.50;94.50
10572;DHT22;5334;48.928;12.704;2023-04-22T20:31:42;14.50;94.80
10572;DHT22;5334;48.928;12.704;2023-04-22T20:34:08;14.40;95.40
10572;DHT22;5334;48.928;12.704;2023-04-22T20:36:36;14.40;95.70
10572;DHT22;5334;48.928;12.704;2023-04-22T20:39:03;14.30;95.50
10572;DHT22;5334;48.928;12.704;2023-04-22T20:41:35;14.20;95.60
10572;DHT22;5334;48.928;12.704;2023-04-22T20:44:02;14.20;95.50
10572;DHT22;5334;48.928;12.704;2023-04-22T20:46:27;14.30;95.30
10572;DHT22;5334;48.928;12.704;2023-04-22T20:48:53;14.30;95.40
10572;DHT22;5334;48.928;12.704;2023-04-22T20:51:19;14.30;95.60
10572;DHT22;5334;48.928;12.704;2023-04-22T20:53:45;14.30;95.50
10572;DHT22;5334;48.928;12.704;2023-04-22T20:56:10;14.30;95.30
10572;DHT22;5334;48.928;12.704;2023-04-22T20:58:36;14.30;95.70
10572;DHT22;5334;48.928;12.704;2023-04-22T21:01:01;14.30;96.10
10572;DHT22;5334;48.928;12.704;2023-04-22T21:03:28;14.40;95.70
10572;DHT22;5334;48.928;12.704;2023-04-22T21:05:55;14.40;95.50
10572;DHT22;5334;48.928;12.704;2023-04-22T21:08:23;14.50;95.60
10572;DHT22;5334;48.928;12.704;2023-04-22T21:10:50;14.50;95.50
10572;DHT22;5334;48.928;12.704;2023-04-22T21:13:16;14.50;95.40
10572;DHT22;5334;48.928;12.704;2023-04-22T21:18:23;14.50;95.90
10572;DHT22;5334;48.928;12.704;2023-04-22T21:20:49;14.40;95.80
10572;DHT22;5334;48.928;12.704;2023-04-22T21:23:19;14.40;95.60
10572;DHT22;5334;48.928;12.704;2023-04-22T21:25:46;14.40;96.60
10572;DHT22;5334;48.928;12.704;2023-04-22T21:28:13;14.40;96.40
10572;DHT22;5334;48.928;12.704;2023-04-22T21:30:39;14.20;98.10
10572;DHT22;5334;48.928;12.704;2023-04-22T21:33:05;14.00;96.90
10572;DHT22;5334;48.928;12.704;2023-04-22T21:35:31;14.00;97.30
10572;DHT22;5334;48.928;12.704;2023-04-22T21:37:56;14.00;97.20
10572;DHT22;5334;48.928;12.704;2023-04-22T21:40:22;14.10;97.80
10572;DHT22;5334;48.928;12.704;2023-04-22T21:42:48;14.20;97.40
10572;DHT22;5334;48.928;12.704;2023-04-22T21:45:14;14.10;97.70
10572;DHT22;5334;48.928;12.704;2023-04-22T21:47:39;14.10;99.00
10572;DHT22;5334;48.928;12.704;2023-04-22T21:50:05;14.10;98.50
10572;DHT22;5334;48.928;12.704;2023-04-22T21:52:32;14.00;99.50
10572;DHT22;5334;48.928;12.704;2023-04-22T21:54:57;14.10;99.90
10572;DHT22;5334;48.928;12.704;2023-04-22T21:57:23;14.10;99.90
10572;DHT22;5334;48.928;12.704;2023-04-22T21:59:49;14.20;99.90
10572;DHT22;5334;48.928;12.704;2023-04-22T22:02:14;14.20;99.90
10572;DHT22;5334;48.928;12.704;2023-04-22T22:04:40;14.20;99.90
10572;DHT22;5334;48.928;12.704;2023-04-22T22:07:06;14.20;99.90
10572;DHT22;5334;48.928;12.704;2023-04-22T22:09:32;14.20;99.90
10572;DHT22;5334;48.928;12.704;2023-04-22T22:11:57;14.20;99.90
10572;DHT22;5334;48.928;12.704;2023-04-22T22:14:23;14.30;99.90
10572;DHT22;5334;48.928;12.704;2023-04-22T22:16:49;14.20;99.90
10572;DHT22;5334;48.928;12.704;2023-04-22T22:19:18;14.20;99.90
10572;DHT22;5334;48.928;12.704;2023-04-22T22:21:44;13.90;99.90
10572;DHT22;5334;48.928;12.704;2023-04-22T22:24:10;13.80;99.90
10572;DHT22;5334;48.928;12.704;2023-04-22T22:26:36;13.80;99.90
10572;DHT22;5334;48.928;12.704;2023-04-22T22:29:04;14.00;99.90
10572;DHT22;5334;48.928;12.704;2023-04-22T22:31:30;14.00;99.90
10572;DHT22;5334;48.928;12.704;2023-04-22T22:33:56;14.10;99.90
10572;DHT22;5334;48.928;12.704;2023-04-22T22:36:22;14.20;99.90
10572;DHT22;5334;48.928;12.704;2023-04-22T22:38:48;14.20;99.90
10572;DHT22;5334;48.928;12.704;2023-04-22T22:41:13;14.20;99.90
10572;DHT22;5334;48.928;12.704;2023-04-22T22:43:39;14.20;99.90
10572;DHT22;5334;48.928;12.704;2023-04-22T22:46:05;14.20;99.90
10572;DHT22;5334;48.928;12.704;2023-04-22T22:48:30;14.00;99.90
10572;DHT22;5334;48.928;12.704;2023-04-22T22:50:56;13.90;99.90
10572;DHT22;5334;48.928;12.704;2023-04-22T22:53:21;13.90;99.90
10572;DHT22;5334;48.928;12.704;2023-04-22T22:55:47;13.90;99.90
10572;DHT22;5334;48.928;12.704;2023-04-22T22:58:13;13.90;99.90
10572;DHT22;5334;48.928;12.704;2023-04-22T23:00:38;13.80;99.90
10572;DHT22;5334;48.928;12.704;2023-04-22T23:03:04;13.80;99.90
10572;DHT22;5334;48.928;12.704;2023-04-22T23:05:30;13.70;99.90
10572;DHT22;5334;48.928;12.704;2023-04-22T23:07:56;13.50;99.90
10572;DHT22;5334;48.928;12.704;2023-04-22T23:10:21;13.40;99.90
10572;DHT22;5334;48.928;12.704;2023-04-22T23:12:47;13.30;99.90
10572;DHT22;5334;48.928;12.704;2023-04-22T23:15:13;13.30;99.90
10572;DHT22;5334;48.928;12.704;2023-04-22T23:17:38;13.30;99.90
10572;DHT22;5334;48.928;12.704;2023-04-22T23:20:04;13.30;99.90
10572;DHT22;5334;48.928;12.704;2023-04-22T23:22:32;13.20;99.90
10572;DHT22;5334;48.928;12.704;2023-04-22T23:24:58;13.20;99.90
10572;DHT22;5334;48.928;12.704;2023-04-22T23:27:24;13.20;99.90
10572;DHT22;5334;48.928;12.704;2023-04-22T23:29:50;13.20;99.90